sensor_id;sensor_type;location;lat;lon;timestamp;pressure;altitude;pressure_sealevel;temperature;humidity
44675;BME280;30388;52.038;-1.478;2023-05-03T00:01:43;65364.35;;;7.19;100.00
44675;BME280;30388;52.038;-1.478;2023-05-03T00:04:10;65354.33;;;6.57;100.00
44675;BME280;30388;52.038;-1.478;2023-05-03T00:06:38;65396.06;;;7.10;100.00
44675;BME280;30388;52.038;-1.478;2023-05-03T00:09:05;65320.31;;;6.64;100.00
44675;BME280;30388;52.038;-1.478;2023-05-03T00:11:33;65356.38;;;7.09;100.00
44675;BME280;30388;52.038;-1.478;2023-05-03T00:14:00;65339.19;;;6.39;100.00
44675;BME280;30388;52.038;-1.478;2023-05-03T00:16:26;65274.69;;;6.05;100.00
44675;BME280;30388;52.038;-1.478;2023-05-03T00:18:55;65279.98;;;6.12;100.00
44675;BME280;30388;52.038;-1.478;2023-05-03T00:21:23;65300.78;;;6.39;100.00
44675;BME280;30388;52.038;-1.478;2023-05-03T00:23:51;65321.12;;;6.65;100.00
44675;BME280;30388;52.038;-1.478;2023-05-03T00:26:20;65310.35;;;6.51;100.00
44675;BME280;30388;52.038;-1.478;2023-05-03T00:28:48;65277.97;;;6.10;100.00
44675;BME280;30388;52.038;-1.478;2023-05-03T00:31:15;65271.48;;;6.02;100.00
44675;BME280;30388;52.038;-1.478;2023-05-03T00:33:43;65300.21;;;6.38;100.00
44675;BME280;30388;52.038;-1.478;2023-05-03T00:36:12;65302.36;;;6.14;100.00
44675;BME280;30388;52.038;-1.478;2023-05-03T00:38:40;65313.04;;;6.54;100.00
44675;BME280;30388;52.038;-1.478;2023-05-03T00:41:09;65294.25;;;6.31;100.00
44675;BME280;30388;52.038;-1.478;2023-05-03T00:43:38;65289.89;;;6.25;100.00
44675;BME280;30388;52.038;-1.478;2023-05-03T00:46:06;65313.97;;;6.07;100.00
44675;BME280;30388;52.038;-1.478;2023-05-03T00:48:34;65325.73;;;6.71;100.00
44675;BME280;30388;52.038;-1.478;2023-05-03T00:51:02;65319.32;;;6.62;100.00
44675;BME280;30388;52.038;-1.478;2023-05-03T00:53:32;65297.60;;;6.35;100.00
44675;BME280;30388;52.038;-1.478;2023-05-03T00:56:00;65301.87;;;5.92;100.00
44675;BME280;30388;52.038;-1.478;2023-05-03T00:58:29;65321.44;;;6.17;100.00
44675;BME280;30388;52.038;-1.478;2023-05-03T01:00:56;65289.06;;;6.25;100.00
44675;BME280;30388;52.038;-1.478;2023-05-03T01:03:25;65301.59;;;6.40;100.00
44675;BME280;30388;52.038;-1.478;2023-05-03T01:05:57;65284.20;;;6.18;100.00
44675;BME280;30388;52.038;-1.478;2023-05-03T01:08:33;65276.86;;;6.08;100.00
44675;BME280;30388;52.038;-1.478;2023-05-03T01:11:08;65290.14;;;6.26;100.00
44675;BME280;30388;52.038;-1.478;2023-05-03T01:13:42;65311.48;;;6.53;100.00
44675;BME280;30388;52.038;-1.478;2023-05-03T01:16:17;65316.20;;;6.59;100.00
44675;BME280;30388;52.038;-1.478;2023-05-03T01:18:46;65319.02;;;6.62;100.00
44675;BME280;30388;52.038;-1.478;2023-05-03T01:21:16;65320.08;;;6.36;100.00
44675;BME280;30388;52.038;-1.478;2023-05-03T01:23:53;65329.90;;;6.75;100.00
44675;BME280;30388;52.038;-1.478;2023-05-03T01:26:23;65312.03;;;6.53;100.00
44675;BME280;30388;52.038;-1.478;2023-05-03T01:28:52;65330.81;;;6.28;100.00
44675;BME280;30388;52.038;-1.478;2023-05-03T01:31:27;65329.97;;;6.27;100.00
44675;BME280;30388;52.038;-1.478;2023-05-03T01:34:06;65303.31;;;5.93;100.00
44675;BME280;30388;52.038;-1.478;2023-05-03T01:36:36;65301.89;;;6.40;100.00
44675;BME280;30388;52.038;-1.478;2023-05-03T01:39:09;65316.70;;;6.33;100.00
44675;BME280;30388;52.038;-1.478;2023-05-03T01:41:40;65325.71;;;6.44;100.00
44675;BME280;30388;52.038;-1.478;2023-05-03T01:44:09;65334.79;;;6.56;100.00
44675;BME280;30388;52.038;-1.478;2023-05-03T01:46:41;65334.94;;;6.56;100.00
44675;BME280;30388;52.038;-1.478;2023-05-03T01:49:10;65336.84;;;6.85;100.00
44675;BME280;30388;52.038;-1.478;2023-05-03T01:51:37;65307.98;;;5.99;100.00
44675;BME280;30388;52.038;-1.478;2023-05-03T01:54:05;65303.08;;;6.42;100.00
44675;BME280;30388;52.038;-1.478;2023-05-03T01:56:34;65274.15;;;6.05;100.00
44675;BME280;30388;52.038;-1.478;2023-05-03T01:59:01;65266.08;;;5.95;100.00
44675;BME280;30388;52.038;-1.478;2023-05-03T02:01:28;65252.09;;;5.77;100.00
44675;BME280;30388;52.038;-1.478;2023-05-03T02:03:56;65253.72;;;5.80;100.00
44675;BME280;30388;52.038;-1.478;2023-05-03T02:06:24;65237.67;;;5.58;100.00
44675;BME280;30388;52.038;-1.478;2023-05-03T02:08:52;65268.16;;;5.97;100.00
44675;BME280;30388;52.038;-1.478;2023-05-03T02:11:20;65271.89;;;6.03;100.00
44675;BME280;30388;52.038;-1.478;2023-05-03T02:13:48;65282.78;;;6.15;100.00
44675;BME280;30388;52.038;-1.478;2023-05-03T02:16:16;65283.18;;;6.16;100.00
44675;BME280;30388;52.038;-1.478;2023-05-03T02:18:43;65219.61;;;5.80;100.00
44675;BME280;30388;52.038;-1.478;2023-05-03T02:21:10;65223.89;;;5.86;100.00
44675;BME280;30388;52.038;-1.478;2023-05-03T02:23:38;65204.40;;;5.39;100.00
44675;BME280;30388;52.038;-1.478;2023-05-03T02:26:06;65214.44;;;5.52;100.00
44675;BME280;30388;52.038;-1.478;2023-05-03T02:28:34;65178.73;;;5.28;100.00
44675;BME280;30388;52.038;-1.478;2023-05-03T02:31:02;65164.82;;;5.11;100.00
44675;BME280;30388;52.038;-1.478;2023-05-03T02:33:29;65144.80;;;4.85;100.00
44675;BME280;30388;52.038;-1.478;2023-05-03T02:35:57;65126.05;;;4.62;100.00
44675;BME280;30388;52.038;-1.478;2023-05-03T02:38:24;65126.04;;;4.40;100.00
44675;BME280;30388;52.038;-1.478;2023-05-03T02:40:52;65100.94;;;4.30;100.00
44675;BME280;30388;52.038;-1.478;2023-05-03T02:43:18;65104.95;;;4.84;100.00
44675;BME280;30388;52.038;-1.478;2023-05-03T02:45:45;65101.69;;;4.31;100.00
44675;BME280;30388;52.038;-1.478;2023-05-03T02:48:12;65136.25;;;4.75;100.00
44675;BME280;30388;52.038;-1.478;2023-05-03T02:50:41;65106.60;;;4.37;100.00
44675;BME280;30388;52.038;-1.478;2023-05-03T02:53:08;65087.57;;;4.13;100.00
44675;BME280;30388;52.038;-1.478;2023-05-03T02:55:36;65091.91;;;4.18;100.00
44675;BME280;30388;52.038;-1.478;2023-05-03T02:58:02;65073.12;;;4.43;100.00
44675;BME280;30388;52.038;-1.478;2023-05-03T03:00:30;65063.52;;;4.31;100.00
44675;BME280;30388;52.038;-1.478;2023-05-03T03:02:57;65082.40;;;4.32;100.00
44675;BME280;30388;52.038;-1.478;2023-05-03T03:05:23;65072.12;;;4.42;100.00
44675;BME280;30388;52.038;-1.478;2023-05-03T03:07:50;65068.61;;;4.38;100.00
44675;BME280;30388;52.038;-1.478;2023-05-03T03:10:17;65058.33;;;4.24;100.00
44675;BME280;30388;52.038;-1.478;2023-05-03T03:12:46;65080.32;;;4.52;100.00
44675;BME280;30388;52.038;-1.478;2023-05-03T03:15:13;65066.12;;;4.34;100.00
44675;BME280;30388;52.038;-1.478;2023-05-03T03:17:40;65042.68;;;4.04;100.00
44675;BME280;30388;52.038;-1.478;2023-05-03T03:20:08;65015.31;;;3.92;100.00
44675;BME280;30388;52.038;-1.478;2023-05-03T03:22:35;65031.10;;;4.12;100.00
44675;BME280;30388;52.038;-1.478;2023-05-03T03:25:02;65043.35;;;4.05;100.00
44675;BME280;30388;52.038;-1.478;2023-05-03T03:27:29;65031.87;;;3.90;100.00
44675;BME280;30388;52.038;-1.478;2023-05-03T03:29:56;65056.94;;;4.22;100.00
44675;BME280;30388;52.038;-1.478;2023-05-03T03:32:24;65056.49;;;3.99;100.00
44675;BME280;30388;52.038;-1.478;2023-05-03T03:34:52;65071.21;;;4.18;100.00
44675;BME280;30388;52.038;-1.478;2023-05-03T03:37:19;65068.04;;;4.36;100.00
44675;BME280;30388;52.038;-1.478;2023-05-03T03:39:47;65043.72;;;4.05;100.00
44675;BME280;30388;52.038;-1.478;2023-05-03T03:42:15;65060.87;;;4.27;100.00
44675;BME280;30388;52.038;-1.478;2023-05-03T03:44:42;65068.11;;;3.88;100.00
44675;BME280;30388;52.038;-1.478;2023-05-03T03:47:09;65080.68;;;4.31;100.00
44675;BME280;30388;52.038;-1.478;2023-05-03T03:49:35;65098.09;;;4.75;100.00
44675;BME280;30388;52.038;-1.478;2023-05-03T03:52:03;65103.82;;;4.33;100.00
44675;BME280;30388;52.038;-1.478;2023-05-03T03:54:31;65099.97;;;4.55;100.00
44675;BME280;30388;52.038;-1.478;2023-05-03T03:56:57;65082.49;;;4.33;100.00
44675;BME280;30388;52.038;-1.478;2023-05-03T03:59:24;65082.13;;;4.06;100.00
44675;BME280;30388;52.038;-1.478;2023-05-03T04:01:51;65090.66;;;4.16;100.00
44675;BME280;30388;52.038;-1.478;2023-05-03T04:04:19;65093.15;;;4.19;100.00
44675;BME280;30388;52.038;-1.478;2023-05-03T04:06:46;65116.85;;;4.49;100.00
44675;BME280;30388;52.038;-1.478;2023-05-03T04:09:13;65104.52;;;4.34;100.00
44675;BME280;30388;52.038;-1.478;2023-05-03T04:11:40;65103.16;;;4.81;100.00
44675;BME280;30388;52.038;-1.478;2023-05-03T04:14:07;65092.25;;;4.19;100.00
44675;BME280;30388;52.038;-1.478;2023-05-03T04:16:34;65075.11;;;3.98;100.00
44675;BME280;30388;52.038;-1.478;2023-05-03T04:19:01;65101.14;;;4.56;100.00
44675;BME280;30388;52.038;-1.478;2023-05-03T04:21:28;65107.44;;;4.87;100.00
44675;BME280;30388;52.038;-1.478;2023-05-03T04:23:57;65127.70;;;4.64;100.00
44675;BME280;30388;52.038;-1.478;2023-05-03T04:26:25;65143.45;;;4.84;100.00
44675;BME280;30388;52.038;-1.478;2023-05-03T04:28:51;65134.87;;;4.73;100.00
44675;BME280;30388;52.038;-1.478;2023-05-03T04:31:18;65119.71;;;4.53;100.00
44675;BME280;30388;52.038;-1.478;2023-05-03T04:33:45;65137.52;;;4.77;100.00
44675;BME280;30388;52.038;-1.478;2023-05-03T04:36:12;65166.02;;;5.12;100.00
44675;BME280;30388;52.038;-1.478;2023-05-03T04:38:39;65149.78;;;4.70;100.00
44675;BME280;30388;52.038;-1.478;2023-05-03T04:41:06;65156.46;;;4.79;100.00
44675;BME280;30388;52.038;-1.478;2023-05-03T04:43:33;65096.12;;;4.24;100.00
44675;BME280;30388;52.038;-1.478;2023-05-03T04:45:59;65111.88;;;4.43;100.00
44675;BME280;30388;52.038;-1.478;2023-05-03T04:48:28;65100.85;;;4.28;100.00
44675;BME280;30388;52.038;-1.478;2023-05-03T04:50:56;65077.78;;;4.50;100.00
44675;BME280;30388;52.038;-1.478;2023-05-03T04:53:25;65090.71;;;4.16;100.00
44675;BME280;30388;52.038;-1.478;2023-05-03T04:55:53;65094.88;;;4.22;100.00
44675;BME280;30388;52.038;-1.478;2023-05-03T04:58:19;65131.81;;;4.96;100.00
44675;BME280;30388;52.038;-1.478;2023-05-03T05:00:47;65132.79;;;4.69;100.00
44675;BME280;30388;52.038;-1.478;2023-05-03T05:03:15;65160.44;;;5.05;100.00
44675;BME280;30388;52.038;-1.478;2023-05-03T05:05:43;65168.98;;;5.16;100.00
44675;BME280;30388;52.038;-1.478;2023-05-03T05:08:11;65192.51;;;5.46;100.00
44675;BME280;30388;52.038;-1.478;2023-05-03T05:10:40;65232.68;;;5.52;100.00
44675;BME280;30388;52.038;-1.478;2023-05-03T05:13:08;65229.85;;;5.49;100.00
44675;BME280;30388;52.038;-1.478;2023-05-03T05:15:35;65268.34;;;5.98;100.00
44675;BME280;30388;52.038;-1.478;2023-05-03T05:18:02;65259.46;;;5.87;100.00
44675;BME280;30388;52.038;-1.478;2023-05-03T05:20:31;65252.14;;;5.77;100.00
44675;BME280;30388;52.038;-1.478;2023-05-03T05:22:58;65270.19;;;5.52;100.00
44675;BME280;30388;52.038;-1.478;2023-05-03T05:25:26;65294.27;;;5.82;100.00
44675;BME280;30388;52.038;-1.478;2023-05-03T05:27:55;65331.42;;;6.29;100.00
44675;BME280;30388;52.038;-1.478;2023-05-03T05:30:22;65296.97;;;6.35;100.00
44675;BME280;30388;52.038;-1.478;2023-05-03T05:32:49;65254.78;;;5.54;100.00
44675;BME280;30388;52.038;-1.478;2023-05-03T05:35:17;65266.19;;;5.95;100.00
44675;BME280;30388;52.038;-1.478;2023-05-03T05:37:45;65294.21;;;6.31;100.00
44675;BME280;30388;52.038;-1.478;2023-05-03T05:40:12;65287.93;;;6.23;100.00
44675;BME280;30388;52.038;-1.478;2023-05-03T05:42:39;65276.13;;;6.08;100.00
44675;BME280;30388;52.038;-1.478;2023-05-03T05:45:09;65295.29;;;6.06;100.00
44675;BME280;30388;52.038;-1.478;2023-05-03T05:47:36;65292.22;;;6.28;100.00
44675;BME280;30388;52.038;-1.478;2023-05-03T05:50:05;65314.57;;;6.29;100.00
44675;BME280;30388;52.038;-1.478;2023-05-03T05:52:33;65298.25;;;6.36;100.00
44675;BME280;30388;52.038;-1.478;2023-05-03T05:55:00;65310.58;;;6.25;100.00
44675;BME280;30388;52.038;-1.478;2023-05-03T05:57:28;65264.05;;;5.93;100.00
44675;BME280;30388;52.038;-1.478;2023-05-03T05:59:55;65246.26;;;5.70;100.00
44675;BME280;30388;52.038;-1.478;2023-05-03T06:02:23;65243.37;;;5.89;100.00
44675;BME280;30388;52.038;-1.478;2023-05-03T06:04:50;65246.85;;;5.70;100.00
44675;BME280;30388;52.038;-1.478;2023-05-03T06:07:18;65257.49;;;6.29;100.00
44675;BME280;30388;52.038;-1.478;2023-05-03T06:09:46;65256.32;;;5.82;100.00
44675;BME280;30388;52.038;-1.478;2023-05-03T06:12:14;65243.31;;;6.11;100.00
44675;BME280;30388;52.038;-1.478;2023-05-03T06:14:41;65220.81;;;5.82;100.00
44675;BME280;30388;52.038;-1.478;2023-05-03T06:17:09;65227.37;;;5.91;100.00
44675;BME280;30388;52.038;-1.478;2023-05-03T06:19:37;65228.05;;;5.69;100.00
44675;BME280;30388;52.038;-1.478;2023-05-03T06:22:05;65210.28;;;5.47;100.00
44675;BME280;30388;52.038;-1.478;2023-05-03T06:24:32;65258.67;;;5.86;100.00
44675;BME280;30388;52.038;-1.478;2023-05-03T06:27:01;65294.26;;;6.54;100.00
44675;BME280;30388;52.038;-1.478;2023-05-03T06:29:28;65249.79;;;5.75;100.00
44675;BME280;30388;52.038;-1.478;2023-05-03T06:31:56;65277.81;;;6.32;100.00
44675;BME280;30388;52.038;-1.478;2023-05-03T06:34:25;65278.57;;;6.11;100.00
44675;BME280;30388;52.038;-1.478;2023-05-03T06:36:52;65273.22;;;6.27;100.00
44675;BME280;30388;52.038;-1.478;2023-05-03T06:39:19;65286.68;;;6.21;100.00
44675;BME280;30388;52.038;-1.478;2023-05-03T06:41:47;65275.37;;;6.30;100.00
44675;BME280;30388;52.038;-1.478;2023-05-03T06:44:14;65274.24;;;6.06;100.00
44675;BME280;30388;52.038;-1.478;2023-05-03T06:46:42;65307.06;;;6.47;100.00
44675;BME280;30388;52.038;-1.478;2023-05-03T06:49:08;65281.45;;;6.15;100.00
44675;BME280;30388;52.038;-1.478;2023-05-03T06:51:36;65269.90;;;6.45;100.00
44675;BME280;30388;52.038;-1.478;2023-05-03T06:54:04;65271.01;;;6.24;100.00
44675;BME280;30388;52.038;-1.478;2023-05-03T06:56:31;65335.71;;;6.84;100.00
44675;BME280;30388;52.038;-1.478;2023-05-03T06:59:00;65302.52;;;6.64;100.00
44675;BME280;30388;52.038;-1.478;2023-05-03T07:01:29;65287.84;;;6.45;100.00
44675;BME280;30388;52.038;-1.478;2023-05-03T07:03:56;65258.33;;;6.30;100.00
44675;BME280;30388;52.038;-1.478;2023-05-03T07:06:23;65270.06;;;6.45;100.00
44675;BME280;30388;52.038;-1.478;2023-05-03T07:08:53;65300.74;;;6.62;100.00
44675;BME280;30388;52.038;-1.478;2023-05-03T07:11:20;65312.93;;;6.76;100.00
44675;BME280;30388;52.038;-1.478;2023-05-03T07:13:48;65366.21;;;7.23;100.00
44675;BME280;30388;52.038;-1.478;2023-05-03T07:16:16;65365.44;;;7.22;100.00
44675;BME280;30388;52.038;-1.478;2023-05-03T07:18:44;65359.41;;;7.14;100.00
44675;BME280;30388;52.038;-1.478;2023-05-03T07:21:11;65390.08;;;7.04;100.00
44675;BME280;30388;52.038;-1.478;2023-05-03T07:23:39;65473.23;;;8.10;100.00
44675;BME280;30388;52.038;-1.478;2023-05-03T07:26:07;65484.84;;;8.25;100.00
44675;BME280;30388;52.038;-1.478;2023-05-03T07:28:34;65422.22;;;7.44;100.00
44675;BME280;30388;52.038;-1.478;2023-05-03T07:31:02;65439.59;;;7.66;100.00
44675;BME280;30388;52.038;-1.478;2023-05-03T07:33:29;65457.24;;;8.11;100.00
44675;BME280;30388;52.038;-1.478;2023-05-03T07:35:56;65446.79;;;7.76;100.00
44675;BME280;30388;52.038;-1.478;2023-05-03T07:38:24;65448.20;;;7.77;100.00
44675;BME280;30388;52.038;-1.478;2023-05-03T07:40:52;65449.99;;;7.80;100.00
44675;BME280;30388;52.038;-1.478;2023-05-03T07:43:20;65496.82;;;8.12;100.00
44675;BME280;30388;52.038;-1.478;2023-05-03T07:45:47;65492.18;;;8.06;100.00
44675;BME280;30388;52.038;-1.478;2023-05-03T07:48:14;65499.66;;;8.43;100.00
44675;BME280;30388;52.038;-1.478;2023-05-03T07:50:42;65495.59;;;8.37;100.00
44675;BME280;30388;52.038;-1.478;2023-05-03T07:53:10;65524.67;;;8.75;100.00
44675;BME280;30388;52.038;-1.478;2023-05-03T07:55:37;65510.64;;;8.57;100.00
44675;BME280;30388;52.038;-1.478;2023-05-03T07:58:05;65553.53;;;8.62;100.00
44675;BME280;30388;52.038;-1.478;2023-05-03T08:00:33;65577.06;;;9.14;100.00
44675;BME280;30388;52.038;-1.478;2023-05-03T08:03:00;65622.26;;;9.50;100.00
44675;BME280;30388;52.038;-1.478;2023-05-03T08:05:28;65586.77;;;9.05;100.00
44675;BME280;30388;52.038;-1.478;2023-05-03T08:07:56;65590.75;;;9.10;100.00
44675;BME280;30388;52.038;-1.478;2023-05-03T08:10:23;65635.33;;;9.16;100.00
44675;BME280;30388;52.038;-1.478;2023-05-03T08:12:50;65633.20;;;9.64;100.00
44675;BME280;30388;52.038;-1.478;2023-05-03T08:15:19;65603.69;;;9.26;100.00
44675;BME280;30388;52.038;-1.478;2023-05-03T08:17:46;65592.12;;;9.12;100.00
44675;BME280;30388;52.038;-1.478;2023-05-03T08:20:13;65642.87;;;9.53;100.00
44675;BME280;30388;52.038;-1.478;2023-05-03T08:22:42;65698.53;;;10.24;100.00
44675;BME280;30388;52.038;-1.478;2023-05-03T08:25:09;65686.10;;;9.81;100.00
44675;BME280;30388;52.038;-1.478;2023-05-03T08:27:36;65683.26;;;9.77;100.00
44675;BME280;30388;52.038;-1.478;2023-05-03T08:30:05;65688.32;;;10.10;100.00
44675;BME280;30388;52.038;-1.478;2023-05-03T08:32:32;65598.96;;;9.19;100.00
44675;BME280;30388;52.038;-1.478;2023-05-03T08:34:59;65654.90;;;9.68;100.00
44675;BME280;30388;52.038;-1.478;2023-05-03T08:37:26;65696.26;;;9.94;100.00
44675;BME280;30388;52.038;-1.478;2023-05-03T08:39:55;65740.27;;;10.49;100.00
44675;BME280;30388;52.038;-1.478;2023-05-03T08:42:22;65701.74;;;10.49;100.00
44675;BME280;30388;52.038;-1.478;2023-05-03T08:44:49;65626.62;;;9.55;100.00
44675;BME280;30388;52.038;-1.478;2023-05-03T08:47:18;65649.86;;;9.84;100.00
44675;BME280;30388;52.038;-1.478;2023-05-03T08:49:46;65707.90;;;10.08;100.00
44675;BME280;30388;52.038;-1.478;2023-05-03T08:52:14;65743.45;;;10.54;100.00
44675;BME280;30388;52.038;-1.478;2023-05-03T08:54:42;65754.19;;;10.67;100.00
44675;BME280;30388;52.038;-1.478;2023-05-03T08:57:12;65754.57;;;10.67;100.00
44675;BME280;30388;52.038;-1.478;2023-05-03T08:59:48;65778.71;;;10.75;100.00
44675;BME280;30388;52.038;-1.478;2023-05-03T09:02:16;65753.12;;;10.65;100.00
44675;BME280;30388;52.038;-1.478;2023-05-03T09:04:43;65758.04;;;10.71;100.00
44675;BME280;30388;52.038;-1.478;2023-05-03T09:07:11;65691.11;;;10.14;100.00
44675;BME280;30388;52.038;-1.478;2023-05-03T09:09:39;65656.67;;;9.92;100.00
44675;BME280;30388;52.038;-1.478;2023-05-03T09:12:07;65688.61;;;10.10;100.00
44675;BME280;30388;52.038;-1.478;2023-05-03T09:14:41;65733.47;;;10.19;100.00
44675;BME280;30388;52.038;-1.478;2023-05-03T09:17:14;65712.89;;;10.41;100.00
44675;BME280;30388;52.038;-1.478;2023-05-03T09:19:51;65741.91;;;10.51;100.00
44675;BME280;30388;52.038;-1.478;2023-05-03T09:22:18;65788.72;;;11.11;100.00
44675;BME280;30388;52.038;-1.478;2023-05-03T09:24:54;65786.29;;;11.08;100.00
44675;BME280;30388;52.038;-1.478;2023-05-03T09:27:23;65764.41;;;10.80;100.00
44675;BME280;30388;52.038;-1.478;2023-05-03T09:29:51;65737.96;;;10.46;100.00
44675;BME280;30388;52.038;-1.478;2023-05-03T09:32:20;65770.47;;;10.65;100.00
44675;BME280;30388;52.038;-1.478;2023-05-03T09:34:47;65767.71;;;10.84;100.00
44675;BME280;30388;52.038;-1.478;2023-05-03T09:37:15;65761.44;;;10.75;100.00
44675;BME280;30388;52.038;-1.478;2023-05-03T09:39:45;65794.37;;;10.95;100.00
44675;BME280;30388;52.038;-1.478;2023-05-03T09:42:14;65762.34;;;10.77;100.00
44675;BME280;30388;52.038;-1.478;2023-05-03T09:44:45;65814.56;;;11.21;100.00
44675;BME280;30388;52.038;-1.478;2023-05-03T09:47:13;65698.93;;;9.97;100.00
44675;BME280;30388;52.038;-1.478;2023-05-03T09:49:41;65727.24;;;10.33;100.00
44675;BME280;30388;52.038;-1.478;2023-05-03T09:52:09;65823.26;;;11.33;100.00
44675;BME280;30388;52.038;-1.478;2023-05-03T09:54:38;65812.68;;;11.41;100.00
44675;BME280;30388;52.038;-1.478;2023-05-03T09:57:07;65822.70;;;11.32;100.00
44675;BME280;30388;52.038;-1.478;2023-05-03T09:59:35;65810.59;;;11.39;100.00
44675;BME280;30388;52.038;-1.478;2023-05-03T10:02:05;65846.80;;;11.40;100.00
44675;BME280;30388;52.038;-1.478;2023-05-03T10:04:38;65841.42;;;11.33;100.00
44675;BME280;30388;52.038;-1.478;2023-05-03T10:07:11;65801.04;;;11.04;100.00
44675;BME280;30388;52.038;-1.478;2023-05-03T10:09:42;65823.23;;;11.32;100.00
44675;BME280;30388;52.038;-1.478;2023-05-03T10:12:12;65775.46;;;10.94;100.00
44675;BME280;30388;52.038;-1.478;2023-05-03T10:14:40;65800.60;;;11.04;100.00
44675;BME280;30388;52.038;-1.478;2023-05-03T10:17:14;65796.46;;;10.98;100.00
44675;BME280;30388;52.038;-1.478;2023-05-03T10:19:50;65863.60;;;11.83;100.00
44675;BME280;30388;52.038;-1.478;2023-05-03T10:22:18;65887.07;;;12.13;100.00
44675;BME280;30388;52.038;-1.478;2023-05-03T10:25:18;65930.18;;;12.18;100.00
44675;BME280;30388;52.038;-1.478;2023-05-03T10:27:50;65873.79;;;11.74;100.00
44675;BME280;30388;52.038;-1.478;2023-05-03T10:30:34;65894.45;;;11.99;100.00
44675;BME280;30388;52.038;-1.478;2023-05-03T10:33:29;65854.46;;;11.49;100.00
44675;BME280;30388;52.038;-1.478;2023-05-03T10:35:57;65844.16;;;11.81;100.00
44675;BME280;30388;52.038;-1.478;2023-05-03T10:38:26;65929.20;;;12.44;100.00
44675;BME280;30388;52.038;-1.478;2023-05-03T10:40:54;65945.47;;;12.37;100.00
44675;BME280;30388;52.038;-1.478;2023-05-03T10:43:54;65891.96;;;11.96;100.00
44675;BME280;30388;52.038;-1.478;2023-05-03T10:46:31;65876.37;;;11.77;100.00
44675;BME280;30388;52.038;-1.478;2023-05-03T10:49:17;65872.03;;;11.71;100.00
44675;BME280;30388;52.038;-1.478;2023-05-03T10:51:45;65862.88;;;11.60;100.00
44675;BME280;30388;52.038;-1.478;2023-05-03T10:54:12;65869.10;;;12.13;100.00
44675;BME280;30388;52.038;-1.478;2023-05-03T10:56:48;65785.26;;;11.07;100.00
44675;BME280;30388;52.038;-1.478;2023-05-03T10:59:16;65859.52;;;11.79;100.00
44675;BME280;30388;52.038;-1.478;2023-05-03T11:01:45;65950.59;;;12.71;100.00
44675;BME280;30388;52.038;-1.478;2023-05-03T11:04:21;66013.22;;;13.01;100.00
44675;BME280;30388;52.038;-1.478;2023-05-03T11:06:52;65991.20;;;13.23;100.00
44675;BME280;30388;52.038;-1.478;2023-05-03T11:09:19;65969.32;;;12.68;100.00
44675;BME280;30388;52.038;-1.478;2023-05-03T11:11:47;65940.03;;;12.57;100.00
44675;BME280;30388;52.038;-1.478;2023-05-03T11:14:14;65978.80;;;12.57;100.00
44675;BME280;30388;52.038;-1.478;2023-05-03T11:16:42;65996.94;;;12.81;100.00
44675;BME280;30388;52.038;-1.478;2023-05-03T11:19:12;66048.53;;;13.46;100.00
44675;BME280;30388;52.038;-1.478;2023-05-03T11:21:40;66047.65;;;13.44;100.00
44675;BME280;30388;52.038;-1.478;2023-05-03T11:24:08;66070.03;;;13.73;100.00
44675;BME280;30388;52.038;-1.478;2023-05-03T11:26:35;66039.08;;;13.34;100.00
44675;BME280;30388;52.038;-1.478;2023-05-03T11:29:02;66019.92;;;13.32;100.00
44675;BME280;30388;52.038;-1.478;2023-05-03T11:31:30;65997.91;;;12.82;100.00
44675;BME280;30388;52.038;-1.478;2023-05-03T11:33:58;66042.98;;;13.39;100.00
44675;BME280;30388;52.038;-1.478;2023-05-03T11:36:25;66036.30;;;13.30;100.00
44675;BME280;30388;52.038;-1.478;2023-05-03T11:38:53;66092.76;;;13.30;100.00
44675;BME280;30388;52.038;-1.478;2023-05-03T11:41:21;66044.61;;;13.40;100.00
44675;BME280;30388;52.038;-1.478;2023-05-03T11:43:49;66046.51;;;13.43;100.00
44675;BME280;30388;52.038;-1.478;2023-05-03T11:46:18;66015.98;;;13.04;100.00
44675;BME280;30388;52.038;-1.478;2023-05-03T11:48:46;65974.02;;;12.52;100.00
44675;BME280;30388;52.038;-1.478;2023-05-03T11:51:13;66012.78;;;12.74;100.00
44675;BME280;30388;52.038;-1.478;2023-05-03T11:53:42;66028.12;;;12.93;100.00
44675;BME280;30388;52.038;-1.478;2023-05-03T11:56:11;66097.04;;;14.07;100.00
44675;BME280;30388;52.038;-1.478;2023-05-03T11:58:50;66062.61;;;13.36;100.00
44675;BME280;30388;52.038;-1.478;2023-05-03T12:01:18;66066.56;;;13.41;100.00
44675;BME280;30388;52.038;-1.478;2023-05-03T12:03:46;66112.21;;;13.77;100.00
44675;BME280;30388;52.038;-1.478;2023-05-03T12:06:13;66063.45;;;13.38;100.00
44675;BME280;30388;52.038;-1.478;2023-05-03T12:08:40;66052.78;;;13.24;100.00
44675;BME280;30388;52.038;-1.478;2023-05-03T12:11:07;66087.05;;;13.45;100.00
44675;BME280;30388;52.038;-1.478;2023-05-03T12:13:37;66001.03;;;12.86;100.00
44675;BME280;30388;52.038;-1.478;2023-05-03T12:16:06;66001.27;;;12.85;100.00
44675;BME280;30388;52.038;-1.478;2023-05-03T12:18:51;65946.80;;;12.66;100.00
44675;BME280;30388;52.038;-1.478;2023-05-03T12:21:20;65979.37;;;12.58;100.00
44675;BME280;30388;52.038;-1.478;2023-05-03T12:23:47;66074.37;;;13.78;100.00
44675;BME280;30388;52.038;-1.478;2023-05-03T12:26:15;66094.80;;;13.77;100.00
44675;BME280;30388;52.038;-1.478;2023-05-03T12:28:42;66061.48;;;13.62;100.00
44675;BME280;30388;52.038;-1.478;2023-05-03T12:31:10;66113.31;;;14.01;100.00
44675;BME280;30388;52.038;-1.478;2023-05-03T12:33:37;66135.99;;;14.07;100.00
44675;BME280;30388;52.038;-1.478;2023-05-03T12:36:04;66137.69;;;14.10;100.00
44675;BME280;30388;52.038;-1.478;2023-05-03T12:38:33;66158.67;;;14.35;100.00
44675;BME280;30388;52.038;-1.478;2023-05-03T12:41:00;66171.25;;;14.03;100.00
44675;BME280;30388;52.038;-1.478;2023-05-03T12:43:27;66117.68;;;13.84;100.00
44675;BME280;30388;52.038;-1.478;2023-05-03T12:45:56;66087.79;;;13.95;100.00
44675;BME280;30388;52.038;-1.478;2023-05-03T12:48:24;66086.90;;;13.68;100.00
44675;BME280;30388;52.038;-1.478;2023-05-03T12:50:51;66129.35;;;14.21;100.00
44675;BME280;30388;52.038;-1.478;2023-05-03T12:53:20;66071.95;;;13.48;100.00
44675;BME280;30388;52.038;-1.478;2023-05-03T12:55:47;66041.78;;;13.37;100.00